createdAt,value
2023-02-24T00:02:15.449Z,85.76
2023-02-24T00:04:44.114Z,85.76
2023-02-24T00:07:13.200Z,85.89
2023-02-24T00:09:44.596Z,85.96
2023-02-24T00:12:14.973Z,86.14
2023-02-24T00:14:45.497Z,86.01
2023-02-24T00:17:16.874Z,86.28
2023-02-24T00:19:46.634Z,86.39
2023-02-24T00:22:14.933Z,86.22
2023-02-24T00:24:43.311Z,86.23
2023-02-24T00:27:12.232Z,86.33
2023-02-24T00:29:42.057Z,86.08
2023-02-24T00:32:13.526Z,86.24
2023-02-24T00:34:43.367Z,86.24
2023-02-24T00:37:12.250Z,86.34
2023-02-24T00:39:42.083Z,86.14
2023-02-24T00:42:12.059Z,86.12
2023-02-24T00:44:44.719Z,86.15
2023-02-24T00:47:14.864Z,86.32
2023-02-24T00:49:43.505Z,86.42
2023-02-24T00:52:21.789Z,86.43
2023-02-24T00:54:50.736Z,86.21
2023-02-24T00:57:21.731Z,85.92
2023-02-24T00:59:54.646Z,85.99
2023-02-24T01:02:22.811Z,86.18
2023-02-24T01:04:51.681Z,86.11
2023-02-24T01:07:20.149Z,86.10
2023-02-24T01:09:50.336Z,86.05
2023-02-24T01:12:38.666Z,86.15
2023-02-24T01:15:09.351Z,86.05
2023-02-24T01:17:37.900Z,86.10
2023-02-24T01:20:17.148Z,86.02
2023-02-24T01:22:50.657Z,86.09
2023-02-24T01:25:20.968Z,86.05
2023-02-24T01:27:49.241Z,86.18
2023-02-24T01:30:18.494Z,86.16
2023-02-24T01:32:47.841Z,86.27
2023-02-24T01:35:19.346Z,86.23
2023-02-24T01:37:47.945Z,86.14
2023-02-24T01:40:21.144Z,86.02
2023-02-24T01:42:50.117Z,85.93
2023-02-24T01:45:25.185Z,86.18
2023-02-24T01:47:59.614Z,86.18
2023-02-24T01:50:28.810Z,86.30
2023-02-24T01:53:04.521Z,86.21
2023-02-24T01:55:38.496Z,86.14
2023-02-24T01:58:16.653Z,86.07
2023-02-24T02:05:40.436Z,86.28
2023-02-24T02:08:10.478Z,86.42
2023-02-24T02:10:44.363Z,86.35
2023-02-24T02:13:21.112Z,86.29
2023-02-24T02:16:14.178Z,86.38
2023-02-24T02:18:56.422Z,86.35
2023-02-24T02:21:27.664Z,86.25
2023-02-24T02:24:14.866Z,86.39
2023-02-24T02:26:54.197Z,86.43
2023-02-24T02:29:45.627Z,86.38
2023-02-24T02:32:53.581Z,86.35
2023-02-24T02:35:36.875Z,86.43
2023-02-24T02:38:04.935Z,86.43
2023-02-24T02:40:42.519Z,86.40
2023-02-24T02:43:25.974Z,86.37
2023-02-24T02:46:06.546Z,86.40
2023-02-24T02:48:47.874Z,86.57
2023-02-24T02:51:24.723Z,86.49
2023-02-24T02:54:16.763Z,86.58
2023-02-24T02:56:54.953Z,86.70
2023-02-24T02:59:28.579Z,86.67
2023-02-24T03:02:11.691Z,86.64
2023-02-24T03:04:55.213Z,86.55
2023-02-24T03:07:31.057Z,86.53
2023-02-24T03:10:09.746Z,86.59
2023-02-24T03:12:41.360Z,86.65
2023-02-24T03:15:11.356Z,86.62
2023-02-24T03:17:43.481Z,86.62
2023-02-24T03:20:17.659Z,86.69
2023-02-24T03:23:16.858Z,86.62
2023-02-24T03:26:07.996Z,86.76
2023-02-24T03:28:45.691Z,86.74
2023-02-24T03:31:23.899Z,86.78
2023-02-24T03:34:05.596Z,86.96
2023-02-24T03:36:33.982Z,87.05
2023-02-24T03:39:02.677Z,86.89
2023-02-24T03:41:41.210Z,86.90
2023-02-24T03:44:11.226Z,87.15
2023-02-24T03:46:42.788Z,87.18
2023-02-24T03:49:16.355Z,87.27
2023-02-24T03:52:00.863Z,87.39
2023-02-24T03:54:39.538Z,87.24
2023-02-24T03:57:27.594Z,87.39
2023-02-24T04:00:38.549Z,87.51
2023-02-24T04:03:11.637Z,87.69
2023-02-24T04:05:47.745Z,87.63
2023-02-24T04:08:17.544Z,87.73
2023-02-24T04:11:05.509Z,87.73
2023-02-24T04:13:41.194Z,87.88
2023-02-24T04:16:28.956Z,87.91
2023-02-24T04:19:03.534Z,87.99
2023-02-24T04:21:34.241Z,88.18
2023-02-24T04:24:11.688Z,88.11
2023-02-24T04:26:43.437Z,88.41
2023-02-24T04:29:17.828Z,88.44
2023-02-24T04:32:08.413Z,88.37
2023-02-24T04:34:37.751Z,88.57
2023-02-24T04:37:06.383Z,88.71
2023-02-24T04:39:38.578Z,88.80
2023-02-24T04:42:10.988Z,88.92
2023-02-24T04:44:39.008Z,88.89
2023-02-24T04:47:07.452Z,88.98
2023-02-24T04:49:35.650Z,88.96
2023-02-24T04:52:03.680Z,89.14
2023-02-24T04:54:33.014Z,89.15
2023-02-24T04:57:01.175Z,89.27
2023-02-24T04:59:29.414Z,89.45
2023-02-24T05:02:01.615Z,89.44
2023-02-24T05:04:36.040Z,89.42
2023-02-24T05:07:04.752Z,89.55
2023-02-24T05:09:33.255Z,89.47
2023-02-24T05:12:01.407Z,89.61
2023-02-24T05:14:30.552Z,89.70
2023-02-24T05:17:00.486Z,89.81
2023-02-24T05:19:47.671Z,89.76
2023-02-24T05:22:17.581Z,89.80
2023-02-24T05:24:48.042Z,89.85
2023-02-24T05:27:17.585Z,90.01
2023-02-24T05:29:45.972Z,90.10
2023-02-24T05:32:16.813Z,90.04
2023-02-24T05:34:45.201Z,90.10
2023-02-24T05:37:16.537Z,90.00
2023-02-24T05:39:44.582Z,90.17
2023-02-24T05:42:12.863Z,90.25
2023-02-24T05:44:41.843Z,90.33
2023-02-24T05:47:10.585Z,90.41
2023-02-24T05:49:38.984Z,90.32
2023-02-24T05:52:09.743Z,90.41
2023-02-24T05:54:43.374Z,90.73
2023-02-24T05:57:14.780Z,90.79
2023-02-24T05:59:44.922Z,90.80
2023-02-24T06:02:15.409Z,90.92
2023-02-24T06:04:51.683Z,91.00
2023-02-24T06:07:25.018Z,90.82
2023-02-24T06:09:58.924Z,90.98
2023-02-24T06:12:39.885Z,90.91
2023-02-24T06:15:08.699Z,90.98
2023-02-24T06:17:36.868Z,90.87
2023-02-24T06:20:15.936Z,90.90
2023-02-24T06:22:44.517Z,90.97
2023-02-24T06:25:12.834Z,91.18
2023-02-24T06:27:41.145Z,91.23
2023-02-24T06:30:10.407Z,91.30
2023-02-24T06:32:38.752Z,91.32
2023-02-24T06:35:07.082Z,91.55
2023-02-24T06:37:35.891Z,91.58
2023-02-24T06:40:15.806Z,91.59
2023-02-24T06:42:55.827Z,91.74
2023-02-24T06:45:25.308Z,91.89
2023-02-24T06:47:53.714Z,91.77
2023-02-24T06:50:21.991Z,91.99
2023-02-24T06:52:50.783Z,91.93
2023-02-24T06:55:27.359Z,92.07
2023-02-24T06:58:04.556Z,92.20
2023-02-24T07:00:38.992Z,92.23
2023-02-24T07:03:15.508Z,92.38
2023-02-24T07:05:50.513Z,92.36
2023-02-24T07:08:21.251Z,92.32
2023-02-24T07:10:58.143Z,92.18
2023-02-24T07:13:30.554Z,92.28
2023-02-24T07:16:07.302Z,92.37
2023-02-24T07:18:37.211Z,92.43
2023-02-24T07:21:05.556Z,92.42
2023-02-24T07:23:33.704Z,92.39
2023-02-24T07:26:10.352Z,92.25
2023-02-24T07:28:40.259Z,92.33
2023-02-24T07:31:10.627Z,92.50
2023-02-24T07:33:45.273Z,92.45
2023-02-24T07:36:16.006Z,92.43
2023-02-24T07:38:45.583Z,92.45
2023-02-24T07:41:15.961Z,92.38
2023-02-24T07:43:44.250Z,92.35
2023-02-24T07:46:15.492Z,92.54
2023-02-24T07:48:44.097Z,92.34
2023-02-24T07:51:14.952Z,92.45
2023-02-24T07:53:43.522Z,92.33
2023-02-24T07:56:14.343Z,92.45
2023-02-24T07:58:50.553Z,92.53
2023-02-24T08:01:28.129Z,92.51
2023-02-24T08:04:01.320Z,92.60
2023-02-24T08:06:54.698Z,92.72
2023-02-24T08:09:46.800Z,92.59
2023-02-24T08:12:22.399Z,92.55
2023-02-24T08:14:52.931Z,92.62
2023-02-24T08:17:26.783Z,92.83
2023-02-24T08:20:22.090Z,92.87
2023-02-24T08:22:55.162Z,92.97
2023-02-24T08:25:38.326Z,92.91
2023-02-24T08:28:11.774Z,92.97
2023-02-24T08:30:47.597Z,92.90
2023-02-24T08:33:22.279Z,93.05
2023-02-24T08:35:58.009Z,93.29
2023-02-24T08:38:28.741Z,93.42
2023-02-24T08:41:05.047Z,93.45
2023-02-24T08:43:39.329Z,93.68
2023-02-24T08:46:13.722Z,93.79
2023-02-24T08:48:44.173Z,93.89
2023-02-24T08:51:23.563Z,93.81
2023-02-24T08:53:54.630Z,93.79
2023-02-24T08:56:28.200Z,93.92
2023-02-24T08:59:08.214Z,93.80
2023-02-24T09:01:40.436Z,93.93
2023-02-24T09:04:12.150Z,94.10
2023-02-24T09:06:49.243Z,94.04
2023-02-24T09:09:23.026Z,93.87
2023-02-24T09:11:56.681Z,94.07
2023-02-24T09:14:29.312Z,94.03
2023-02-24T09:17:11.942Z,93.93
2023-02-24T09:19:52.186Z,94.18
2023-02-24T09:22:33.388Z,94.17
2023-02-24T09:25:19.323Z,94.22
2023-02-24T09:27:55.203Z,94.07
2023-02-24T09:30:38.832Z,94.05
2023-02-24T09:33:18.350Z,93.97
2023-02-24T09:35:50.586Z,94.20
2023-02-24T09:38:43.160Z,94.12
2023-02-24T09:42:02.575Z,94.13
2023-02-24T09:44:33.674Z,94.29
2023-02-24T09:47:19.861Z,94.30
2023-02-24T09:49:56.522Z,94.27
2023-02-24T09:52:41.022Z,94.39
2023-02-24T09:55:31.028Z,94.16
2023-02-24T09:58:34.842Z,94.02
2023-02-24T10:01:36.195Z,93.93
2023-02-24T10:04:36.219Z,94.25
2023-02-24T10:07:15.762Z,94.18
2023-02-24T10:09:50.650Z,94.33
2023-02-24T10:12:28.356Z,94.27
2023-02-24T10:15:20.185Z,94.21
2023-02-24T10:17:57.265Z,94.37
2023-02-24T10:20:39.601Z,94.19
2023-02-24T10:24:14.773Z,94.08
2023-02-24T10:27:01.261Z,93.65
2023-02-24T10:30:11.501Z,93.19
2023-02-24T10:32:59.028Z,93.54
2023-02-24T10:35:34.207Z,93.43
2023-02-24T10:38:06.262Z,93.28
2023-02-24T10:40:47.269Z,93.24
2023-02-24T10:43:18.613Z,93.38
2023-02-24T10:45:47.674Z,93.29
2023-02-24T10:48:40.621Z,93.24
2023-02-24T10:51:20.157Z,93.21
2023-02-24T10:54:10.249Z,93.07
2023-02-24T10:56:55.319Z,93.35
2023-02-24T10:59:48.603Z,93.18
2023-02-24T11:02:30.116Z,93.11
2023-02-24T11:05:17.035Z,93.14
2023-02-24T11:07:53.832Z,93.06
2023-02-24T11:10:32.562Z,92.92
2023-02-24T11:13:21.658Z,93.07
2023-02-24T11:16:13.360Z,92.99
2023-02-24T11:18:50.128Z,93.20
2023-02-24T11:21:19.789Z,93.24
2023-02-24T11:23:58.569Z,93.20
2023-02-24T11:26:34.944Z,93.02
2023-02-24T11:29:23.188Z,92.76
2023-02-24T11:32:12.709Z,92.82
2023-02-24T11:34:59.665Z,92.68
2023-02-24T11:37:53.513Z,92.42
2023-02-24T11:40:27.013Z,92.61
2023-02-24T11:43:07.404Z,92.13
2023-02-24T11:45:43.516Z,91.64
2023-02-24T11:48:30.056Z,91.27
2023-02-24T11:51:06.079Z,91.07
2023-02-24T11:53:50.177Z,90.94
2023-02-24T11:56:24.289Z,90.90
2023-02-24T11:59:13.664Z,90.55
2023-02-24T12:01:52.454Z,90.61
2023-02-24T12:04:26.595Z,90.76
2023-02-24T12:07:03.711Z,90.79
2023-02-24T12:09:49.344Z,90.32
2023-02-24T12:12:23.231Z,90.19
2023-02-24T12:14:59.341Z,90.41
2023-02-24T12:17:58.081Z,90.51
2023-02-24T12:20:55.931Z,90.68
2023-02-24T12:23:28.357Z,90.89
2023-02-24T12:26:13.583Z,90.96
2023-02-24T12:29:03.999Z,91.31
2023-02-24T12:31:54.427Z,91.22
2023-02-24T12:34:37.792Z,91.01
2023-02-24T12:37:09.170Z,90.61
2023-02-24T12:39:40.380Z,90.31
2023-02-24T12:42:31.632Z,90.01
2023-02-24T12:45:18.616Z,89.70
2023-02-24T12:48:11.820Z,89.99
2023-02-24T12:50:50.082Z,90.04
2023-02-24T12:53:29.087Z,90.10
2023-02-24T12:56:10.126Z,89.98
2023-02-24T12:58:42.513Z,90.01
2023-02-24T13:01:25.231Z,89.90
2023-02-24T13:04:17.102Z,89.88
2023-02-24T13:07:09.996Z,90.02
2023-02-24T13:09:52.714Z,90.09
2023-02-24T13:12:41.255Z,90.02
2023-02-24T13:15:28.711Z,89.86
2023-02-24T13:17:58.313Z,89.66
2023-02-24T13:20:37.289Z,90.08
2023-02-24T13:23:21.213Z,89.85
2023-02-24T13:25:52.670Z,89.91
2023-02-24T13:28:39.067Z,90.21
2023-02-24T13:31:13.018Z,90.07
2023-02-24T13:33:44.275Z,89.96
2023-02-24T13:36:16.228Z,89.99
2023-02-24T13:38:47.407Z,89.66
2023-02-24T13:41:27.661Z,89.56
2023-02-24T13:44:00.198Z,89.49
2023-02-24T13:46:36.126Z,89.38
2023-02-24T13:49:30.556Z,89.00
2023-02-24T13:52:34.713Z,88.69
2023-02-24T13:55:14.215Z,88.41
2023-02-24T13:58:24.473Z,88.05
2023-02-24T14:01:10.855Z,88.26
2023-02-24T14:03:42.227Z,88.14
2023-02-24T14:06:39.559Z,88.08
2023-02-24T14:09:08.341Z,88.04
2023-02-24T14:11:37.821Z,87.93
2023-02-24T14:14:06.033Z,88.05
2023-02-24T14:16:40.022Z,87.94
2023-02-24T14:19:16.305Z,88.09
2023-02-24T14:21:57.824Z,88.19
2023-02-24T14:24:29.270Z,88.30
2023-02-24T14:26:59.526Z,88.27
2023-02-24T14:29:43.123Z,88.16
2023-02-24T14:32:21.661Z,88.26
2023-02-24T14:34:51.210Z,88.20
2023-02-24T14:37:26.099Z,88.21
2023-02-24T14:39:56.958Z,88.48
2023-02-24T14:42:26.728Z,88.14
2023-02-24T14:44:58.069Z,88.22
2023-02-24T14:47:29.107Z,88.28
2023-02-24T14:50:05.072Z,88.52
2023-02-24T14:52:40.858Z,88.33
2023-02-24T14:55:40.548Z,88.55
2023-02-24T14:58:21.286Z,88.37
2023-02-24T15:01:00.098Z,88.19
2023-02-24T15:03:44.922Z,88.30
2023-02-24T15:06:26.300Z,88.15
2023-02-24T15:09:01.833Z,88.23
2023-02-24T15:11:32.119Z,88.37
2023-02-24T15:14:03.444Z,88.23
2023-02-24T15:16:44.185Z,88.11
2023-02-24T15:19:44.396Z,87.95
2023-02-24T15:22:23.098Z,87.94
2023-02-24T15:24:54.033Z,88.13
2023-02-24T15:27:27.948Z,88.09
2023-02-24T15:30:28.110Z,88.19
2023-02-24T15:33:05.926Z,87.92
2023-02-24T15:35:39.139Z,88.06
2023-02-24T15:38:07.314Z,88.00
2023-02-24T15:40:35.670Z,88.03
2023-02-24T15:43:12.143Z,87.99
2023-02-24T15:45:42.615Z,88.00
2023-02-24T15:48:23.557Z,87.80
2023-02-24T15:50:51.881Z,87.86
2023-02-24T15:53:20.512Z,87.93
2023-02-24T15:55:49.823Z,87.97
2023-02-24T15:58:22.102Z,87.95
2023-02-24T16:00:52.538Z,87.92
2023-02-24T16:03:21.396Z,87.94
2023-02-24T16:05:49.530Z,87.95
2023-02-24T16:08:20.747Z,88.03
2023-02-24T16:10:50.591Z,88.14
2023-02-24T16:13:22.866Z,88.01
2023-02-24T16:15:51.587Z,88.12
2023-02-24T16:18:22.811Z,88.02
2023-02-24T16:20:55.415Z,88.13
2023-02-24T16:23:25.831Z,88.02
2023-02-24T16:25:57.401Z,88.26
2023-02-24T16:28:26.770Z,88.15
2023-02-24T16:30:55.250Z,88.25
2023-02-24T16:33:24.249Z,88.43
2023-02-24T16:35:55.710Z,88.46
2023-02-24T16:38:27.029Z,88.47
2023-02-24T16:40:55.988Z,88.67
2023-02-24T16:43:24.882Z,88.63
2023-02-24T16:45:55.676Z,88.50
2023-02-24T16:48:26.465Z,88.26
2023-02-24T16:50:54.767Z,88.40
2023-02-24T16:53:24.988Z,88.42
2023-02-24T16:55:53.335Z,88.31
2023-02-24T16:58:23.424Z,88.49
2023-02-24T17:00:55.598Z,88.25
2023-02-24T17:03:26.899Z,88.43
2023-02-24T17:05:55.292Z,88.52
2023-02-24T17:08:23.948Z,88.54
2023-02-24T17:10:54.306Z,88.61
2023-02-24T17:13:22.917Z,88.64
2023-02-24T17:15:55.512Z,88.53
2023-02-24T17:18:25.192Z,88.46
2023-02-24T17:20:56.829Z,88.58
2023-02-24T17:23:25.427Z,88.56
2023-02-24T17:25:56.898Z,88.69
2023-02-24T17:28:27.160Z,88.51
2023-02-24T17:30:55.751Z,88.65
2023-02-24T17:33:24.004Z,88.67
2023-02-24T17:35:52.078Z,88.76
2023-02-24T17:38:23.264Z,88.66
2023-02-24T17:40:51.305Z,88.72
2023-02-24T17:43:19.810Z,88.81
2023-02-24T17:45:48.101Z,88.59
2023-02-24T17:48:16.304Z,88.84
2023-02-24T17:50:45.974Z,88.82
2023-02-24T17:53:15.226Z,88.82
2023-02-24T17:56:00.959Z,88.77
2023-02-24T17:58:30.720Z,88.79
2023-02-24T18:00:59.032Z,88.56
2023-02-24T18:03:27.498Z,88.92
2023-02-24T18:06:16.921Z,88.82
2023-02-24T18:08:45.038Z,88.82
2023-02-24T18:11:18.902Z,88.69
2023-02-24T18:13:50.873Z,88.86
2023-02-24T18:16:19.638Z,89.16
2023-02-24T18:18:47.928Z,89.49
2023-02-24T18:21:16.069Z,89.48
2023-02-24T18:23:46.021Z,89.36
2023-02-24T18:26:14.170Z,89.26
2023-02-24T18:28:43.306Z,89.26
2023-02-24T18:31:17.514Z,89.12
2023-02-24T18:33:46.574Z,89.21
2023-02-24T18:36:15.960Z,89.03
2023-02-24T18:38:44.749Z,89.04
2023-02-24T18:41:16.032Z,88.78
2023-02-24T18:43:48.176Z,88.80
2023-02-24T18:46:18.595Z,88.80
2023-02-24T18:48:48.590Z,89.00
2023-02-24T18:51:20.226Z,89.08
2023-02-24T18:53:52.117Z,89.20
2023-02-24T18:56:24.968Z,89.06
2023-02-24T18:58:56.858Z,89.21
2023-02-24T19:01:32.815Z,89.25
2023-02-24T19:04:02.390Z,89.37
2023-02-24T19:06:32.363Z,89.30
2023-02-24T19:09:06.247Z,89.25
2023-02-24T19:11:34.440Z,89.29
2023-02-24T19:14:03.484Z,89.29
2023-02-24T19:16:32.145Z,89.34
2023-02-24T19:19:01.176Z,89.62
2023-02-24T19:21:31.334Z,89.71
2023-02-24T19:24:04.073Z,89.74
2023-02-24T19:26:32.487Z,89.79
2023-02-24T19:29:00.876Z,89.85
2023-02-24T19:31:30.912Z,89.72
2023-02-24T19:34:02.471Z,89.61
2023-02-24T19:36:33.266Z,89.61
2023-02-24T19:39:01.862Z,89.54
2023-02-24T19:41:30.361Z,89.55
2023-02-24T19:43:59.930Z,89.56
2023-02-24T19:46:33.176Z,89.40
2023-02-24T19:49:01.817Z,89.47
2023-02-24T19:51:31.251Z,89.58
2023-02-24T19:54:03.359Z,89.61
2023-02-24T19:56:34.873Z,89.55
2023-02-24T19:59:05.891Z,89.54
2023-02-24T20:01:36.967Z,89.31
2023-02-24T20:04:05.996Z,89.37
2023-02-24T20:06:38.107Z,89.73
2023-02-24T20:09:08.881Z,89.85
2023-02-24T20:11:39.290Z,89.70
2023-02-24T20:14:09.314Z,89.39
2023-02-24T20:16:39.652Z,89.49
2023-02-24T20:19:10.249Z,89.40
2023-02-24T20:21:38.930Z,89.53
2023-02-24T20:24:12.535Z,89.61
2023-02-24T20:26:46.435Z,89.45
2023-02-24T20:29:16.722Z,89.53
2023-02-24T20:31:46.578Z,89.51
2023-02-24T20:34:16.954Z,89.56
2023-02-24T20:36:45.381Z,89.56
2023-02-24T20:39:14.041Z,89.42
2023-02-24T20:41:43.037Z,89.25
2023-02-24T20:44:12.177Z,88.78
2023-02-24T20:46:40.623Z,88.43
2023-02-24T20:49:12.932Z,88.32
2023-02-24T20:51:42.194Z,88.28
2023-02-24T20:54:12.047Z,88.05
2023-02-24T20:56:42.146Z,87.97
2023-02-24T20:59:17.550Z,87.88
2023-02-24T21:01:48.590Z,88.12
2023-02-24T21:04:21.478Z,88.14
2023-02-24T21:06:51.555Z,88.03
2023-02-24T21:09:19.804Z,87.96
2023-02-24T21:11:48.196Z,87.88
2023-02-24T21:14:16.926Z,87.95
2023-02-24T21:16:53.773Z,87.88
2023-02-24T21:19:22.231Z,87.82
2023-02-24T21:21:50.314Z,87.91
2023-02-24T21:24:18.512Z,88.09
2023-02-24T21:26:48.800Z,88.09
2023-02-24T21:29:19.604Z,87.92
2023-02-24T21:31:48.914Z,87.99
2023-02-24T21:34:17.386Z,88.29
2023-02-24T21:36:45.706Z,88.04
2023-02-24T21:39:18.119Z,87.77
2023-02-24T21:41:47.339Z,87.86
2023-02-24T21:44:15.638Z,87.99
2023-02-24T21:46:43.849Z,88.17
2023-02-24T21:49:15.072Z,87.83
2023-02-24T21:51:43.737Z,87.65
2023-02-24T21:54:12.621Z,87.83
2023-02-24T21:56:41.233Z,87.67
2023-02-24T21:59:11.243Z,87.82
2023-02-24T22:01:43.168Z,87.63
2023-02-24T22:04:14.712Z,87.69
2023-02-24T22:06:44.858Z,87.87
2023-02-24T22:09:20.574Z,87.90
2023-02-24T22:11:49.994Z,87.78
2023-02-24T22:14:18.904Z,87.53
2023-02-24T22:16:47.128Z,87.62
2023-02-24T22:19:15.447Z,87.57
2023-02-24T22:21:43.884Z,87.60
2023-02-24T22:24:14.421Z,87.45
2023-02-24T22:26:43.384Z,87.45
2023-02-24T22:29:11.934Z,87.43
2023-02-24T22:31:43.522Z,87.72
2023-02-24T22:34:13.200Z,87.63
2023-02-24T22:36:41.548Z,87.59
2023-02-24T22:39:09.866Z,87.66
2023-02-24T22:41:38.731Z,87.81
2023-02-24T22:44:07.271Z,87.78
2023-02-24T22:46:38.364Z,87.72
2023-02-24T22:49:06.765Z,87.60
2023-02-24T22:51:35.141Z,87.47
2023-02-24T22:54:04.250Z,87.69
2023-02-24T22:56:32.715Z,87.58
2023-02-24T22:59:01.109Z,87.41
2023-02-24T23:01:31.987Z,87.61
2023-02-24T23:04:02.000Z,87.76
2023-02-24T23:06:31.010Z,87.79
2023-02-24T23:09:00.721Z,87.74
2023-02-24T23:11:31.504Z,88.04
2023-02-24T23:14:02.500Z,87.97
2023-02-24T23:16:33.221Z,87.67
2023-02-24T23:19:04.387Z,87.79
2023-02-24T23:21:38.603Z,88.08
2023-02-24T23:24:08.951Z,87.89
2023-02-24T23:26:40.938Z,87.79
2023-02-24T23:29:11.589Z,87.91
2023-02-24T23:31:41.640Z,88.04
2023-02-24T23:34:10.726Z,88.18
2023-02-24T23:36:41.909Z,88.18
2023-02-24T23:39:10.892Z,88.14
2023-02-24T23:41:41.305Z,88.08
2023-02-24T23:44:10.116Z,88.26
2023-02-24T23:46:38.393Z,88.24
2023-02-24T23:49:07.032Z,88.17
2023-02-24T23:51:47.690Z,88.19
2023-02-24T23:54:18.281Z,88.35
2023-02-24T23:56:46.865Z,88.45
2023-02-24T23:59:16.196Z,88.46
